Time;durP1;ratioP1;P1;durP2;ratioP2;P2;SDS_P1;SDS_P2;PMS_P1;PMS_P2;Temp;Humidity;BMP_temperature;BMP_pressure;BME280_temperature;BME280_humidity;BME280_pressure;Samples;Min_cycle;Max_cycle;Signal;HPM_P1;HPM_P2
2021/11/29 00:00:17;;;;;;;6.38;2.70;;;;;;;-0.31;100.00;100178.41;2073554;28;20036;-65
2021/11/29 00:01:20;;;;;;;3.28;2.10;;;;;;;-0.33;100.00;100174.16;2073410;28;20421;-66
2021/11/29 00:02:23;;;;;;;4.28;2.03;;;;;;;-0.30;100.00;100174.97;2073527;28;20033;-67
2021/11/29 00:03:24;;;;;;;4.13;2.40;;;;;;;-0.20;100.00;100174.91;2073508;28;20029;-65
2021/11/29 00:04:24;;;;;;;;;;;;;;;-0.19;100.00;100181.72;2073852;28;20034;-64
2021/11/29 00:05:27;;;;;;;3.35;1.70;;;;;;;-0.21;100.00;100186.03;2073576;28;19915;-65
2021/11/29 00:06:27;;;;;;;4.00;1.77;;;;;;;-0.29;100.00;100184.38;2064789;28;20395;-66
2021/11/29 00:07:28;;;;;;;3.45;1.75;;;;;;;-0.29;100.00;100186.94;2064836;28;20065;-65
2021/11/29 00:08:28;;;;;;;2.43;1.60;;;;;;;-0.29;100.00;100179.25;2064798;28;20021;-65
2021/11/29 00:09:29;;;;;;;3.63;1.75;;;;;;;-0.34;100.00;100183.56;2064815;28;20034;-66
2021/11/29 00:10:30;;;;;;;4.13;1.80;;;;;;;-0.37;100.00;100183.59;2066208;28;20045;-66
2021/11/29 00:11:31;;;;;;;4.88;2.15;;;;;;;-0.42;100.00;100190.44;2066559;28;20113;-66
2021/11/29 00:12:32;;;;;;;4.73;2.67;;;;;;;-0.49;100.00;100186.22;2075316;28;20402;-66
2021/11/29 00:13:33;;;;;;;3.20;1.48;;;;;;;-0.54;100.00;100182.00;2066425;28;20498;-66
2021/11/29 00:14:33;;;;;;;3.53;1.50;;;;;;;-0.51;100.00;100181.13;2066603;28;20030;-66
2021/11/29 00:15:33;;;;;;;2.87;2.30;;;;;;;-0.48;100.00;100187.94;2075256;28;20462;-65
2021/11/29 00:16:34;;;;;;;6.43;1.60;;;;;;;-0.52;100.00;100192.22;2066491;28;20368;-65
2021/11/29 00:17:34;;;;;;;3.83;1.63;;;;;;;-0.48;100.00;100193.09;2066506;28;20562;-65
2021/11/29 00:18:36;;;;;;;3.83;1.50;;;;;;;-0.44;100.00;100193.03;2075254;28;20444;-65
2021/11/29 00:19:36;;;;;;;;;;;;;;;-0.42;100.00;100198.16;2075636;28;20037;-66
2021/11/29 00:20:36;;;;;;;2.25;0.85;;;;;;;-0.39;100.00;100195.56;2075177;28;20397;-66
2021/11/29 00:21:37;;;;;;;3.28;1.27;;;;;;;-0.42;100.00;100195.59;2075229;28;20054;-66
2021/11/29 00:22:38;;;;;;;2.73;1.20;;;;;;;-0.44;100.00;100187.06;2075235;28;20418;-65
2021/11/29 00:23:39;;;;;;;3.08;1.40;;;;;;;-0.37;100.00;100190.44;2075224;28;20382;-66
2021/11/29 00:24:40;;;;;;;4.82;1.23;;;;;;;-0.40;100.00;100199.00;2075211;28;20360;-65
2021/11/29 00:25:42;;;;;;;3.25;1.58;;;;;;;-0.47;100.00;100192.22;2075194;28;20103;-66
2021/11/29 00:26:42;;;;;;;3.60;1.30;;;;;;;-0.48;100.00;100196.47;2075090;28;20034;-66
2021/11/29 00:27:43;;;;;;;4.03;1.17;;;;;;;-0.43;100.00;100194.75;2075249;28;20056;-66
2021/11/29 00:28:43;;;;;;;4.00;1.10;;;;;;;-0.42;100.00;100195.59;2074532;28;20014;-66
2021/11/29 00:29:44;;;;;;;3.15;1.40;;;;;;;-0.41;100.00;100192.19;2066333;28;20014;-65
2021/11/29 00:30:46;;;;;;;3.08;1.48;;;;;;;-0.38;100.00;100201.56;2066553;28;20118;-65
2021/11/29 00:31:46;;;;;;;2.33;0.85;;;;;;;-0.43;100.00;100199.00;2075109;28;20442;-65
2021/11/29 00:32:47;;;;;;;5.00;1.33;;;;;;;-0.44;100.00;100199.88;2074593;28;20052;-65
2021/11/29 00:33:47;;;;;;;2.67;1.23;;;;;;;-0.49;100.00;100194.78;2074639;28;20026;-66
2021/11/29 00:34:48;;;;;;;2.47;1.08;;;;;;;-0.54;100.00;100196.53;2075141;28;20022;-65
2021/11/29 00:35:49;;;;;;;3.90;0.90;;;;;;;-0.55;100.00;100195.69;2075133;28;20487;-65
2021/11/29 00:36:49;;;;;;;4.25;1.33;;;;;;;-0.48;100.00;100198.22;2075150;28;20088;-66
2021/11/29 00:37:49;;;;;;;3.23;1.33;;;;;;;-0.52;100.00;100205.91;2075054;28;20029;-65
2021/11/29 00:38:50;;;;;;;4.03;0.90;;;;;;;-0.49;100.00;100202.47;2075043;28;20522;-65
2021/11/29 00:39:51;;;;;;;5.73;2.50;;;;;;;-0.50;100.00;100198.22;2075047;28;20498;-67
2021/11/29 00:40:51;;;;;;;4.63;0.93;;;;;;;-0.56;100.00;100204.22;2075072;28;20387;-66
2021/11/29 00:41:51;;;;;;;3.30;0.80;;;;;;;-0.58;100.00;100200.81;2074981;28;20152;-65
2021/11/29 00:42:52;;;;;;;2.90;0.80;;;;;;;-0.63;100.00;100210.25;2074908;28;20081;-66
2021/11/29 00:43:52;;;;;;;2.50;0.97;;;;;;;-0.70;100.00;100203.47;2075070;28;20072;-66
2021/11/29 00:44:53;;;;;;;3.30;1.03;;;;;;;-0.80;100.00;100211.22;2075009;28;20044;-66
2021/11/29 00:45:53;;;;;;;1.10;0.60;;;;;;;-0.71;100.00;100205.19;2075087;28;20022;-66
2021/11/29 00:46:54;;;;;;;2.90;1.00;;;;;;;-0.69;100.00;100202.59;2075047;28;20030;-66
2021/11/29 00:47:54;;;;;;;3.40;0.90;;;;;;;-0.77;100.00;100205.22;2075023;28;20024;-67
2021/11/29 00:48:54;;;;;;;1.47;0.90;;;;;;;-0.83;100.00;100206.09;2075041;28;20056;-66
2021/11/29 00:49:55;;;;;;;2.27;0.80;;;;;;;-0.85;100.00;100202.72;2074924;28;20152;-65
2021/11/29 00:50:55;;;;;;;3.67;0.90;;;;;;;-0.88;100.00;100206.97;2075088;28;20125;-66
2021/11/29 00:51:55;;;;;;;2.57;0.90;;;;;;;-0.88;100.00;100202.72;2075033;28;20077;-67
2021/11/29 00:52:56;;;;;;;3.80;1.03;;;;;;;-0.89;100.00;100210.41;2074951;28;20384;-66
2021/11/29 00:53:56;;;;;;;2.60;1.03;;;;;;;-0.96;100.00;100209.59;2074910;28;20036;-67
2021/11/29 00:54:56;;;;;;;1.42;0.73;;;;;;;-1.01;100.00;100216.44;2066127;28;20030;-66
2021/11/29 00:55:57;;;;;;;2.10;0.60;;;;;;;-1.01;100.00;100213.88;2066274;28;20546;-66
2021/11/29 00:56:57;;;;;;;4.30;1.13;;;;;;;-0.96;100.00;100218.13;2074246;28;20018;-66
2021/11/29 00:57:57;;;;;;;1.37;0.60;;;;;;;-0.95;100.00;100216.41;2066072;28;20033;-68
2021/11/29 00:58:57;;;;;;;2.33;0.80;;;;;;;-0.94;100.00;100223.22;2066086;28;20026;-66
2021/11/29 00:59:58;;;;;;;1.60;0.60;;;;;;;-0.94;100.00;100218.09;2066080;28;20034;-66
2021/11/29 01:00:58;;;;;;;1.77;0.90;;;;;;;-0.96;100.00;100220.69;2066102;28;20029;-67
2021/11/29 01:01:58;;;;;;;2.57;1.10;;;;;;;-1.02;100.00;100224.97;2066090;28;20033;-67
2021/11/29 01:02:59;;;;;;;1.73;1.00;;;;;;;-1.07;100.00;100223.28;2074821;28;20475;-66
2021/11/29 01:03:59;;;;;;;2.33;1.15;;;;;;;-1.11;100.00;100224.16;2066070;28;20110;-66
2021/11/29 01:04:59;;;;;;;1.50;0.90;;;;;;;-1.14;100.00;100219.06;2066039;28;20034;-67
2021/11/29 01:06:00;;;;;;;1.20;1.00;;;;;;;-1.16;100.00;100228.47;2066134;28;20037;-67
2021/11/29 01:07:00;;;;;;;1.73;0.67;;;;;;;-1.21;100.00;100225.03;2074819;28;20034;-66
2021/11/29 01:08:00;;;;;;;1.30;0.67;;;;;;;-1.22;100.00;100228.47;2066134;28;20019;-66
2021/11/29 01:09:00;;;;;;;2.03;0.80;;;;;;;-1.21;100.00;100225.03;2066190;28;20573;-66
2021/11/29 01:10:01;;;;;;;2.47;0.90;;;;;;;-1.26;100.00;100222.53;2074811;28;20068;-67
2021/11/29 01:11:03;;;;;;;3.37;1.27;;;;;;;-1.32;100.00;100223.41;2074848;28;20030;-67
2021/11/29 01:12:04;;;;;;;2.72;1.00;;;;;;;-1.35;100.00;100218.28;2074846;28;20041;-67
2021/11/29 01:13:05;;;;;;;2.22;0.98;;;;;;;-1.35;100.00;100222.53;2074868;28;20052;-67
2021/11/29 01:14:05;;;;;;;2.65;0.80;;;;;;;-1.40;100.00;100227.69;2066040;28;20561;-67
2021/11/29 01:15:07;;;;;;;1.57;0.80;;;;;;;-1.44;100.00;100226.81;2066184;28;20065;-67
2021/11/29 01:16:09;;;;;;;2.65;0.80;;;;;;;-1.37;100.00;100229.38;2065953;28;20502;-67
2021/11/29 01:17:11;;;;;;;2.53;1.10;;;;;;;-1.33;100.00;100229.34;2066161;28;20050;-67
2021/11/29 01:18:11;;;;;;;4.15;1.10;;;;;;;-1.32;100.00;100225.97;2074711;28;20025;-66
2021/11/29 01:19:12;;;;;;;1.63;0.90;;;;;;;-1.32;100.00;100233.63;2074809;28;20479;-67
2021/11/29 01:20:13;;;;;;;1.53;0.73;;;;;;;-1.34;100.00;100230.22;2074760;28;20040;-67
2021/11/29 01:21:13;;;;;;;2.38;1.00;;;;;;;-1.37;100.00;100240.47;2074721;28;20041;-67
2021/11/29 01:22:14;;;;;;;2.43;0.93;;;;;;;-1.41;100.00;100233.66;2074896;28;20037;-67
2021/11/29 01:23:17;;;;;;;3.22;0.80;;;;;;;-1.43;100.00;100245.59;2074759;28;20395;-67
2021/11/29 01:24:17;;;;;;;2.83;1.00;;;;;;;-1.46;100.00;100241.34;2074730;28;20041;-67
2021/11/29 01:25:17;;;;;;;4.73;0.93;;;;;;;-1.40;100.00;100250.72;2066032;28;20047;-67
2021/11/29 01:26:18;;;;;;;2.10;1.00;;;;;;;-1.40;100.00;100245.59;2066010;28;20018;-66
2021/11/29 01:27:18;;;;;;;1.05;0.75;;;;;;;-1.44;100.00;100242.19;2065975;28;20102;-67
2021/11/29 01:28:19;;;;;;;2.73;0.90;;;;;;;-1.49;100.00;100243.06;2066026;28;20042;-66
2021/11/29 01:29:20;;;;;;;1.42;0.90;;;;;;;-1.57;100.00;100254.16;2074705;28;20022;-66
2021/11/29 01:30:20;;;;;;;1.65;0.70;;;;;;;-1.55;100.00;100241.34;2074707;28;20032;-66
2021/11/29 01:31:22;;;;;;;3.45;0.90;;;;;;;-1.43;100.00;100250.72;2074720;28;20050;-67
2021/11/29 01:32:22;;;;;;;2.37;0.80;;;;;;;-1.44;100.00;100249.00;2074687;28;20452;-66
2021/11/29 01:33:23;;;;;;;1.87;0.83;;;;;;;-1.47;100.00;100249.03;2074632;28;20348;-65
2021/11/29 01:34:23;;;;;;;3.38;0.90;;;;;;;-1.48;100.00;100252.44;2074682;28;20063;-66
2021/11/29 01:35:24;;;;;;;2.83;0.70;;;;;;;-1.50;100.00;100255.00;2074688;28;20034;-64
2021/11/29 01:36:24;;;;;;;4.90;1.00;;;;;;;-1.43;100.00;100249.00;2074476;28;20601;-66
2021/11/29 01:37:24;;;;;;;2.03;0.70;;;;;;;-1.39;100.00;100257.53;2074579;28;20280;-66
2021/11/29 01:38:25;;;;;;;4.00;0.73;;;;;;;-1.33;100.00;100259.25;2074490;28;20367;-67
2021/11/29 01:39:25;;;;;;;3.77;1.20;;;;;;;-1.34;100.00;100247.28;2074540;28;20434;-66
2021/11/29 01:40:27;;;;;;;2.20;0.82;;;;;;;-1.37;100.00;100255.81;2074477;28;20033;-66
2021/11/29 01:41:28;;;;;;;1.92;0.80;;;;;;;-1.35;100.00;100259.25;2074645;28;20028;-66
2021/11/29 01:42:28;;;;;;;2.63;1.00;;;;;;;-1.22;100.00;100262.63;2074430;28;20025;-66
2021/11/29 01:43:28;;;;;;;1.93;1.00;;;;;;;-1.17;100.00;100262.59;2074562;28;20025;-66
2021/11/29 01:44:29;;;;;;;1.30;0.80;;;;;;;-1.12;100.00;100273.69;2074561;28;20034;-66
2021/11/29 01:45:32;;;;;;;2.13;0.70;;;;;;;-1.09;100.00;100271.09;2074531;28;20112;-66
2021/11/29 01:46:32;;;;;;;3.80;1.08;;;;;;;-1.07;100.00;100277.06;2074491;28;20112;-67
2021/11/29 01:47:32;;;;;;;2.23;1.00;;;;;;;-1.07;100.00;100266.84;2074641;28;20031;-67
2021/11/29 01:48:33;;;;;;;3.50;1.03;;;;;;;-1.04;100.00;100264.28;2074546;28;20014;-67
2021/11/29 01:49:33;;;;;;;1.58;0.80;;;;;;;-1.02;100.00;100260.84;2074560;28;20022;-67
2021/11/29 01:50:35;;;;;;;1.63;1.13;;;;;;;-0.98;100.00;100272.78;2065712;28;20034;-67
2021/11/29 01:51:36;;;;;;;1.70;0.70;;;;;;;-1.00;100.00;100274.50;2065756;28;20125;-67
2021/11/29 01:52:36;;;;;;;3.25;1.20;;;;;;;-1.00;100.00;100274.50;2065881;28;20038;-66
2021/11/29 01:53:36;;;;;;;2.40;0.80;;;;;;;-0.95;100.00;100273.63;2074492;28;20018;-67
2021/11/29 01:54:37;;;;;;;2.23;0.97;;;;;;;-0.93;100.00;100271.03;2074454;28;20034;-65
2021/11/29 01:55:41;;;;;;;1.47;0.87;;;;;;;-0.91;100.00;100269.34;2074451;28;20340;-66
2021/11/29 01:56:42;;;;;;;1.83;0.85;;;;;;;-0.91;100.00;100274.47;2074455;28;20475;-67
2021/11/29 01:57:42;;;;;;;2.92;0.80;;;;;;;-0.93;100.00;100264.22;2073771;28;20021;-66
2021/11/29 01:58:42;;;;;;;1.80;0.87;;;;;;;-0.93;100.00;100276.16;2073811;28;20467;-66
2021/11/29 01:59:43;;;;;;;3.10;0.97;;;;;;;-1.00;100.00;100274.50;2074477;28;20076;-66
2021/11/29 02:00:47;;;;;;;3.70;1.30;;;;;;;-0.99;100.00;100277.03;2074521;28;20014;-65
2021/11/29 02:01:48;;;;;;;4.50;0.93;;;;;;;-0.96;100.00;100271.06;2074419;28;20021;-66
2021/11/29 02:02:49;;;;;;;1.80;0.93;;;;;;;-0.95;100.00;100273.63;2074333;28;20386;-67
2021/11/29 02:03:54;;;;;;;3.13;0.90;;;;;;;-0.96;100.00;100271.06;2074400;28;20029;-67
2021/11/29 02:04:59;;;;;;;1.30;0.63;;;;;;;-0.96;100.00;100261.66;2074355;28;20021;-66
2021/11/29 02:05:59;;;;;;;1.63;0.63;;;;;;;-0.95;100.00;100272.78;2065655;28;20065;-67
2021/11/29 02:07:00;;;;;;;2.07;1.00;;;;;;;-0.93;100.00;100271.91;2065704;28;20053;-66
2021/11/29 02:08:00;;;;;;;2.53;0.90;;;;;;;-0.95;100.00;100272.78;2074433;28;20084;-67
2021/11/29 02:09:02;;;;;;;1.43;0.80;;;;;;;-1.00;100.00;100269.38;2065631;28;20030;-67
2021/11/29 02:10:04;;;;;;;2.22;0.80;;;;;;;-0.92;100.00;100272.78;2065891;28;20029;-67
2021/11/29 02:11:06;;;;;;;2.80;0.82;;;;;;;-0.92;100.00;100272.78;2065559;28;20034;-67
2021/11/29 02:12:06;;;;;;;3.63;0.80;;;;;;;-0.93;100.00;100274.47;2065541;28;20086;-67
2021/11/29 02:13:07;;;;;;;3.88;0.80;;;;;;;-0.95;100.00;100272.78;2065678;28;20034;-66
2021/11/29 02:14:09;;;;;;;1.80;0.95;;;;;;;-0.91;100.00;100266.78;2074330;28;20054;-67
2021/11/29 02:15:14;;;;;;;2.58;0.68;;;;;;;-0.91;100.00;100269.34;2074157;28;20037;-67
2021/11/29 02:16:14;;;;;;;1.60;1.00;;;;;;;-0.88;100.00;100264.22;2074327;28;20026;-66
2021/11/29 02:17:16;;;;;;;1.43;0.63;;;;;;;-0.84;100.00;100271.03;2074332;28;20026;-67
2021/11/29 02:18:21;;;;;;;1.58;0.65;;;;;;;-0.81;100.00;100267.59;2065441;28;20153;-66
2021/11/29 02:19:22;;;;;;;1.02;0.70;;;;;;;-0.85;100.00;100269.31;2065597;28;20495;-67
2021/11/29 02:20:23;;;;;;;1.48;0.68;;;;;;;-0.85;100.00;100269.31;2065649;28;20033;-67
2021/11/29 02:21:27;;;;;;;3.30;0.90;;;;;;;-0.81;100.00;100271.00;2074292;28;20030;-66
2021/11/29 02:22:27;;;;;;;2.55;1.00;;;;;;;-0.87;100.00;100265.91;2074255;28;20108;-67
2021/11/29 02:23:27;;;;;;;3.10;0.93;;;;;;;-0.90;100.00;100271.03;2074238;28;20036;-67
2021/11/29 02:24:28;;;;;;;1.80;0.73;;;;;;;-0.89;100.00;100270.16;2065542;28;20026;-66
2021/11/29 02:25:29;;;;;;;0.93;0.60;;;;;;;-0.90;100.00;100271.03;2065563;28;20037;-67
2021/11/29 02:26:32;;;;;;;3.80;1.00;;;;;;;-0.87;100.00;100273.59;2074172;28;20034;-67
2021/11/29 02:27:35;;;;;;;2.55;0.88;;;;;;;-0.86;100.00;100277.84;2074088;28;20099;-67
2021/11/29 02:28:37;;;;;;;2.20;1.00;;;;;;;-0.87;100.00;100271.03;2065370;28;20602;-67
2021/11/29 02:29:40;;;;;;;2.70;0.80;;;;;;;-0.86;100.00;100270.16;2065695;28;20026;-66
2021/11/29 02:30:41;;;;;;;1.40;0.80;;;;;;;-0.75;100.00;100274.41;2065346;28;20041;-66
2021/11/29 02:31:47;;;;;;;1.40;0.90;;;;;;;-0.78;100.00;100270.97;2065360;28;20034;-66
2021/11/29 02:32:47;;;;;;;1.40;0.47;;;;;;;-0.81;100.00;100273.56;2064870;28;20319;-67
2021/11/29 02:33:47;;;;;;;2.85;0.65;;;;;;;-0.78;100.00;100265.84;2065493;28;20030;-67
2021/11/29 02:34:48;;;;;;;1.37;0.70;;;;;;;-0.78;100.00;100265.84;2074060;28;20120;-67
2021/11/29 02:35:49;;;;;;;2.05;1.05;;;;;;;-0.80;100.00;100266.72;2074051;28;20029;-65
2021/11/29 02:36:52;;;;;;;1.70;0.60;;;;;;;-0.80;100.00;100267.59;2074178;28;20037;-67
2021/11/29 02:37:52;;;;;;;1.52;0.75;;;;;;;-0.76;100.00;100262.44;2074068;28;20045;-67
2021/11/29 02:38:52;;;;;;;1.30;0.80;;;;;;;-0.70;100.00;100267.53;2065217;28;20519;-66
2021/11/29 02:39:52;;;;;;;1.50;0.83;;;;;;;-0.71;100.00;100266.69;2065499;28;20026;-66
2021/11/29 02:40:53;;;;;;;1.63;0.90;;;;;;;-0.77;100.00;100266.72;2074050;28;20025;-67
2021/11/29 02:41:55;;;;;;;2.60;1.23;;;;;;;-0.72;100.00;100275.22;2065350;28;20076;-65
2021/11/29 02:42:55;;;;;;;1.27;0.60;;;;;;;-0.70;100.00;100262.41;2065418;28;20574;-66
2021/11/29 02:43:56;;;;;;;2.30;0.97;;;;;;;-0.71;100.00;100266.69;2074198;28;20034;-67
2021/11/29 02:44:56;;;;;;;2.70;0.70;;;;;;;-0.76;100.00;100267.56;2065363;28;20030;-67
2021/11/29 02:45:56;;;;;;;3.37;0.80;;;;;;;-0.82;100.00;100261.59;2065506;28;20557;-67
2021/11/29 02:46:56;;;;;;;1.03;0.70;;;;;;;-0.84;100.00;100268.47;2074023;28;20091;-67
2021/11/29 02:47:57;;;;;;;2.60;0.87;;;;;;;-0.88;100.00;100264.22;2065387;28;20411;-67
2021/11/29 02:48:58;;;;;;;3.20;0.80;;;;;;;-0.93;100.00;100265.91;2065412;28;20061;-67
2021/11/29 02:49:58;;;;;;;1.98;1.00;;;;;;;-0.98;100.00;100265.09;2065308;28;20049;-67
2021/11/29 02:50:59;;;;;;;2.33;0.50;;;;;;;-1.04;100.00;100265.97;2065230;28;20045;-66
2021/11/29 02:52:08;;;;;;;1.53;0.70;;;;;;;-1.00;100.00;100261.69;2065442;28;20030;-66
2021/11/29 02:53:15;;;;;;;2.40;0.95;;;;;;;-0.92;100.00;100270.22;2074077;28;20029;-67
2021/11/29 02:54:19;;;;;;;1.27;0.73;;;;;;;-0.92;100.00;100272.78;2074064;28;20034;-65
2021/11/29 02:55:19;;;;;;;1.98;0.90;;;;;;;-0.89;100.00;100277.03;2073991;28;20073;-66
2021/11/29 02:56:20;;;;;;;1.60;1.00;;;;;;;-0.86;100.00;100279.56;2074016;28;20029;-67
2021/11/29 02:57:22;;;;;;;2.88;0.98;;;;;;;-0.85;100.00;100288.97;2074055;28;20026;-66
2021/11/29 02:58:22;;;;;;;1.55;0.82;;;;;;;-0.84;100.00;100281.28;2065167;28;20026;-66
2021/11/29 02:59:25;;;;;;;2.10;1.00;;;;;;;-0.83;100.00;100288.09;2065438;28;20026;-66
2021/11/29 03:00:26;;;;;;;1.85;0.80;;;;;;;-0.82;100.00;100287.22;2074000;28;20474;-66
2021/11/29 03:01:26;;;;;;;1.00;0.60;;;;;;;-0.80;100.00;100282.97;2073938;28;20030;-66
2021/11/29 03:02:31;;;;;;;2.27;1.00;;;;;;;-0.74;100.00;100283.78;2065184;28;20085;-66
2021/11/29 03:03:32;;;;;;;1.80;0.80;;;;;;;-0.68;100.00;100286.31;2065744;28;20088;-66
2021/11/29 03:04:33;;;;;;;1.73;0.80;;;;;;;-0.66;100.00;100289.72;2073975;28;20456;-67
2021/11/29 03:05:34;;;;;;;;;;;;;;;-0.61;100.00;100284.59;2074410;28;20022;-66
2021/11/29 03:06:34;;;;;;;1.15;0.70;;;;;;;-0.54;100.00;100293.94;2073983;28;19916;-67
2021/11/29 03:07:35;;;;;;;1.33;0.70;;;;;;;-0.52;100.00;100294.78;2073955;28;20021;-66
2021/11/29 03:08:35;;;;;;;2.30;0.90;;;;;;;-0.50;100.00;100287.06;2065288;28;20033;-66
2021/11/29 03:09:36;;;;;;;2.63;1.17;;;;;;;-0.49;100.00;100286.22;2065359;28;20065;-67
2021/11/29 03:10:36;;;;;;;1.23;0.77;;;;;;;-0.51;100.00;100278.56;2074042;28;20096;-67
2021/11/29 03:11:37;;;;;;;1.27;0.70;;;;;;;-0.54;100.00;100281.97;2074014;28;20097;-67
2021/11/29 03:12:37;;;;;;;1.40;0.70;;;;;;;-0.52;100.00;100287.94;2073944;28;20089;-66
2021/11/29 03:13:38;;;;;;;1.60;1.00;;;;;;;-0.48;100.00;100290.50;2074023;28;20038;-67
2021/11/29 03:14:38;;;;;;;1.90;1.08;;;;;;;-0.48;100.00;100288.78;2073923;28;20029;-66
2021/11/29 03:15:39;;;;;;;1.30;0.70;;;;;;;-0.46;100.00;100284.50;2073748;28;20104;-67
2021/11/29 03:16:39;;;;;;;1.67;0.80;;;;;;;-0.41;100.00;100297.31;2073904;28;20030;-68
2021/11/29 03:17:40;;;;;;;1.27;0.90;;;;;;;-0.40;100.00;100296.44;2073915;28;20076;-66
2021/11/29 03:18:43;;;;;;;3.10;1.00;;;;;;;-0.40;100.00;100299.00;2073866;28;20052;-66
2021/11/29 03:19:45;;;;;;;2.03;1.08;;;;;;;-0.48;100.00;100293.06;2073824;28;20025;-66
2021/11/29 03:20:45;;;;;;;1.95;1.02;;;;;;;-0.54;100.00;100287.09;2065067;28;20069;-66
2021/11/29 03:21:46;;;;;;;1.93;1.10;;;;;;;-0.52;100.00;100293.06;2057045;28;20154;-66
2021/11/29 03:22:46;;;;;;;3.10;0.70;;;;;;;-0.50;100.00;100299.91;2065215;28;20037;-66
2021/11/29 03:23:49;;;;;;;1.30;0.90;;;;;;;-0.52;100.00;100298.19;2073818;28;20018;-68
2021/11/29 03:24:49;;;;;;;1.83;1.10;;;;;;;-0.55;100.00;100292.25;2073874;28;20487;-65
2021/11/29 03:25:49;;;;;;;3.60;1.20;;;;;;;-0.60;100.00;100305.09;2073906;28;20022;-66
2021/11/29 03:26:50;;;;;;;1.37;0.90;;;;;;;-0.58;100.00;100302.50;2073861;28;20466;-66
2021/11/29 03:27:50;;;;;;;1.80;0.80;;;;;;;-0.57;100.00;100292.25;2073756;28;20025;-65
2021/11/29 03:28:54;;;;;;;2.13;1.00;;;;;;;-0.56;100.00;100293.94;2073804;28;20500;-67
2021/11/29 03:29:55;;;;;;;2.15;1.13;;;;;;;-0.62;100.00;100290.56;2073774;28;20029;-67
2021/11/29 03:30:55;;;;;;;1.70;0.65;;;;;;;-0.66;100.00;100289.72;2064996;28;20036;-66
2021/11/29 03:32:02;;;;;;;1.57;0.93;;;;;;;-0.57;100.00;100289.69;2065113;28;20026;-67
2021/11/29 03:33:02;;;;;;;3.85;0.80;;;;;;;-0.67;100.00;100288.88;2064972;28;20030;-68
2021/11/29 03:34:05;;;;;;;2.23;1.07;;;;;;;-0.67;100.00;100288.03;2065099;28;20022;-67
2021/11/29 03:35:08;;;;;;;2.67;0.75;;;;;;;-0.68;100.00;100283.78;2073737;28;20037;-66
2021/11/29 03:36:10;;;;;;;5.65;0.95;;;;;;;-0.65;100.00;100291.44;2073753;28;20034;-67
2021/11/29 03:37:10;;;;;;;1.17;0.77;;;;;;;-0.60;100.00;100293.97;2073833;28;20022;-67
2021/11/29 03:38:10;;;;;;;2.83;0.70;;;;;;;-0.62;100.00;100285.44;2073817;28;20054;-66
2021/11/29 03:39:21;;;;;;;1.48;0.75;;;;;;;-0.48;100.00;100283.66;2073795;28;20577;-67
2021/11/29 03:40:22;;;;;;;1.80;1.02;;;;;;;-0.47;100.00;100285.38;2073558;28;20022;-65
2021/11/29 03:41:24;;;;;;;0.50;0.50;;;;;;;-0.45;100.00;100287.94;2073622;28;20022;-66
2021/11/29 03:42:25;;;;;;;0.95;0.50;;;;;;;-0.43;100.00;100292.19;2073469;28;20292;-67
2021/11/29 03:43:25;;;;;;;1.27;0.70;;;;;;;-0.41;100.00;100298.13;2073743;28;20022;-67
2021/11/29 03:44:26;;;;;;;1.47;0.80;;;;;;;-0.38;100.00;100297.25;2064381;28;20027;-67
2021/11/29 03:45:26;;;;;;;2.38;1.10;;;;;;;-0.41;100.00;100294.75;2064799;28;20297;-67
2021/11/29 03:46:26;;;;;;;1.30;0.80;;;;;;;-0.45;100.00;100291.31;2073619;28;20021;-66
2021/11/29 03:47:27;;;;;;;2.37;0.77;;;;;;;-0.53;100.00;100295.66;2073782;28;20033;-67
2021/11/29 03:48:27;;;;;;;0.87;0.53;;;;;;;-0.55;100.00;100297.38;2073731;28;20100;-67
2021/11/29 03:49:28;;;;;;;2.93;0.83;;;;;;;-0.48;100.00;100300.75;2073636;28;20033;-68
2021/11/29 03:50:28;;;;;;;1.33;0.65;;;;;;;-0.49;100.00;100296.47;2073696;28;20108;-68
2021/11/29 03:51:29;;;;;;;1.93;1.00;;;;;;;-0.57;100.00;100299.94;2073677;28;20129;-67
2021/11/29 03:52:29;;;;;;;2.13;0.60;;;;;;;-0.64;100.00;100293.13;2073558;28;20463;-67
2021/11/29 03:53:29;;;;;;;1.93;0.63;;;;;;;-0.66;100.00;100299.97;2073716;28;20195;-67
2021/11/29 03:54:30;;;;;;;3.73;0.67;;;;;;;-0.69;100.00;100305.09;2073756;28;20136;-66
2021/11/29 03:55:30;;;;;;;0.93;0.70;;;;;;;-0.74;100.00;100297.47;2073751;28;20800;-67
2021/11/29 03:56:31;;;;;;;2.00;0.63;;;;;;;-0.70;100.00;100298.28;2073696;28;20030;-66
2021/11/29 03:57:31;;;;;;;0.93;0.50;;;;;;;-0.70;100.00;100298.28;2073625;28;20038;-67
2021/11/29 03:58:31;;;;;;;2.33;0.70;;;;;;;-0.67;100.00;100306.81;2073642;28;20160;-66
2021/11/29 03:59:32;;;;;;;1.10;0.60;;;;;;;-0.70;100.00;100308.53;2064948;28;20022;-66
2021/11/29 04:00:33;;;;;;;1.13;0.70;;;;;;;-0.76;100.00;100304.28;2065026;28;20073;-66
2021/11/29 04:01:34;;;;;;;1.27;0.68;;;;;;;-0.80;100.00;100307.72;2073694;28;20041;-66
2021/11/29 04:02:34;;;;;;;1.15;0.65;;;;;;;-0.75;100.00;100310.28;2073611;28;20030;-66
2021/11/29 04:03:35;;;;;;;2.60;0.97;;;;;;;-0.74;100.00;100305.16;2073591;28;20022;-66
2021/11/29 04:04:35;;;;;;;0.95;0.50;;;;;;;-0.82;100.00;100300.03;2073532;28;20036;-68
2021/11/29 04:05:35;;;;;;;0.87;0.57;;;;;;;-0.89;100.00;100303.47;2073629;28;20022;-66
2021/11/29 04:06:36;;;;;;;0.97;0.53;;;;;;;-0.91;100.00;100310.34;2064860;28;20520;-66
2021/11/29 04:07:36;;;;;;;1.52;0.90;;;;;;;-0.89;100.00;100302.66;2056857;28;20134;-66
2021/11/29 04:08:37;;;;;;;1.20;0.73;;;;;;;-0.90;100.00;100299.22;2064944;28;20045;-66
2021/11/29 04:09:37;;;;;;;1.10;0.60;;;;;;;-0.79;100.00;100302.59;2073510;28;20107;-66
2021/11/29 04:10:37;;;;;;;1.23;0.70;;;;;;;-0.73;100.00;100311.09;2073577;28;20101;-66
2021/11/29 04:11:38;;;;;;;1.47;0.53;;;;;;;-0.75;100.00;100310.28;2064790;28;20038;-66
2021/11/29 04:12:38;;;;;;;0.90;0.60;;;;;;;-0.76;100.00;100308.56;2064874;28;20034;-66
2021/11/29 04:13:40;;;;;;;1.60;0.57;;;;;;;-0.78;100.00;100317.09;2073502;28;20469;-66
2021/11/29 04:14:40;;;;;;;0.88;0.50;;;;;;;-0.76;100.00;100318.84;2073507;28;20092;-67
2021/11/29 04:15:40;;;;;;;1.83;0.73;;;;;;;-0.74;100.00;100320.53;2073723;28;20076;-66
2021/11/29 04:16:40;;;;;;;2.10;0.90;;;;;;;-0.68;100.00;100323.03;2073512;28;20026;-66
2021/11/29 04:17:41;;;;;;;1.23;0.60;;;;;;;-0.64;100.00;100326.47;2073557;28;20020;-66
2021/11/29 04:18:42;;;;;;;1.27;0.70;;;;;;;-0.64;100.00;100318.78;2073484;28;20025;-66
2021/11/29 04:19:45;;;;;;;1.85;0.63;;;;;;;-0.61;100.00;100323.03;2073531;28;20049;-66
2021/11/29 04:20:45;;;;;;;1.75;0.70;;;;;;;-0.52;100.00;100328.09;2073527;28;20026;-68
2021/11/29 04:21:46;;;;;;;2.23;0.50;;;;;;;-0.48;100.00;100341.78;2073497;28;20378;-66
2021/11/29 04:22:47;;;;;;;;;;;;;;;-0.47;100.00;100341.78;2073911;28;20111;-66
2021/11/29 04:23:48;;;;;;;0.85;0.57;;;;;;;-0.44;100.00;100338.34;2073552;28;19967;-67
2021/11/29 04:24:48;;;;;;;1.77;0.60;;;;;;;-0.43;100.00;100342.59;2073599;28;20548;-66
2021/11/29 04:25:54;;;;;;;1.30;0.87;;;;;;;-0.43;100.00;100340.03;2073553;28;20053;-66
2021/11/29 04:26:55;;;;;;;1.48;0.73;;;;;;;-0.42;100.00;100345.16;2073596;28;20030;-67
2021/11/29 04:27:57;;;;;;;3.80;0.90;;;;;;;-0.38;100.00;100348.53;2073569;28;20451;-66
2021/11/29 04:28:57;;;;;;;1.48;0.65;;;;;;;-0.41;100.00;100346.03;2073488;28;20018;-67
2021/11/29 04:30:03;;;;;;;1.13;0.60;;;;;;;-0.37;100.00;100351.97;2073540;28;20422;-66
2021/11/29 04:31:04;;;;;;;1.15;0.65;;;;;;;-0.40;100.00;100350.28;2073526;28;20029;-67
2021/11/29 04:32:05;;;;;;;1.00;0.53;;;;;;;-0.42;100.00;100357.13;2073569;28;20113;-66
2021/11/29 04:33:05;;;;;;;;;;;;;;;-0.42;100.00;100357.13;2065128;28;20035;-66
2021/11/29 04:34:06;;;;;;;3.47;0.80;;;;;;;-0.48;100.00;100358.00;2064838;28;20271;-66
2021/11/29 04:35:07;;;;;;;1.00;0.60;;;;;;;-0.48;100.00;100354.59;2073424;28;20029;-66
2021/11/29 04:36:07;;;;;;;1.15;0.73;;;;;;;-0.43;100.00;100357.97;2073545;28;20033;-66
2021/11/29 04:37:08;;;;;;;0.60;0.40;;;;;;;-0.42;100.00;100354.56;2073490;28;20509;-66
2021/11/29 04:38:08;;;;;;;1.67;0.43;;;;;;;-0.45;100.00;100354.59;2073533;28;20104;-67
2021/11/29 04:39:08;;;;;;;1.00;0.60;;;;;;;-0.51;100.00;100358.03;2064701;28;20026;-67
2021/11/29 04:40:10;;;;;;;2.50;0.83;;;;;;;-0.54;100.00;100361.44;2064800;28;20030;-67
2021/11/29 04:41:10;;;;;;;2.03;0.65;;;;;;;-0.53;100.00;100352.91;2073366;28;20034;-66